MMMY/MTY METAR and TAF weather

Enter ICAO airport designator
Station Type Date Time Source
MMMY METAR 2023/06/01 14:40 UTC NOAA

MMMY 011440Z 11007KT 5SM -DZ BKN008 OVC015 24/23 A2984 RMK SLP/// 5//// 9// 8/6// -DZB38


Station Type Date Time Source
MMMY Decoded METAR 2023/06/01 14:40 UTC NOAA

Monterrey / Gen Maria, Mexico (MMMY) 25-47N 100-06W
Jun 01, 2023 - 10:40 AM EDT / 2023.06.01 1440 UTC
Wind: from the ESE (110 degrees) at 8 MPH (7 KT):0
Visibility: 5 mile(s):0
Sky conditions: overcast
Weather: light drizzle
Temperature: 75 F (24 C)
Dew Point: 73 F (23 C)
Relative Humidity: 94%
Pressure (altimeter): 29.84 in. Hg (1010 hPa)
ob: MMMY 011440Z 11007KT 5SM -DZ BKN008 OVC015 24/23 A2984 RMK SLP/// 5//// 9// 8/6// -DZB38
cycle: 14

Station Type Date Time Source
MMMY TAF 2023/06/01 12:48 UTC NOAA

TAF MMMY 011127Z 0112/0212 08005KT 6SM HZ OVC008 TX32/0121Z TN24/0112Z
TEMPO 0112/0115 2SM BR BKN005 OVC007
FM011800 13010KT 6SM HZ BKN030
FM020300 13005KT 6SM HZ SCT020
FM020600 13005KT 6SM HZ BKN015
TEMPO 0208/0212 3SM BR OVC010

Example: see airport list